Terminal Aerodrome Forecast
Issued by NWS

Home | Current Version | Previous Version | Text Only | Print | Product List | Glossary On
Versions: 1 2 3 4 5 6 7 8 9 10 11 12 13 14 15 16 17 18 19 20 21 22 23 24 25 26 27 28 29 30 31 32 33 34 35 36 37 38 39 40 41
000
FTUS43 KGRB 070355 AAA
TAFRHI
TAF AMD
KRHI 070355Z 0704/0724 20011KT P6SM SCT025 OVC080
      TEMPO 0704/0708 3SM -SN BKN025
     FM071200 23013G17KT P6SM BKN040 OVC100
      TEMPO 0714/0718 5SM -SN OVC035=

USA.gov is the U.S. government's official web portal to all federal, state and local government web resources and services.